Time;durP1;ratioP1;P1;durP2;ratioP2;P2;SDS_P1;SDS_P2;PMS_P1;PMS_P2;Temp;Humidity;BMP_temperature;BMP_pressure;BME280_temperature;BME280_humidity;BME280_pressure;Samples;Min_cycle;Max_cycle;Signal;HPM_P1;HPM_P2
2023/02/21 06:20:53;;;;;;;65.90;33.00;;;;;;;3.58;100.00;98946.44;5073746;27;20064;-65
2023/02/21 06:23:18;;;;;;;61.63;32.28;;;;;;;3.41;100.00;98896.84;5078991;28;20515;-69
2023/02/21 06:25:43;;;;;;;67.18;31.80;;;;;;;3.60;100.00;98942.03;5083881;28;20119;-64
2023/02/21 06:28:09;;;;;;;65.28;32.20;;;;;;;3.70;100.00;98940.53;5081799;28;20034;-67
2023/02/21 06:30:34;;;;;;;72.05;32.63;;;;;;;3.80;100.00;98951.94;5097372;28;20035;-65
2023/02/21 06:33:00;;;;;;;60.65;31.85;;;;;;;3.48;100.00;98907.56;5067227;28;20532;-65
2023/02/21 06:35:25;;;;;;;66.03;33.25;;;;;;;3.72;100.00;98943.84;5056065;27;20020;-64
2023/02/21 06:37:50;;;;;;;57.45;32.47;;;;;;;3.56;100.00;98899.41;5066968;27;20143;-64
2023/02/21 06:40:16;;;;;;;70.43;32.83;;;;;;;3.90;100.00;98933.34;5058880;28;20143;-65
2023/02/21 06:42:41;;;;;;;65.45;33.47;;;;;;;4.08;100.00;98960.50;5058634;28;20379;-66
2023/02/21 06:45:07;;;;;;;63.67;32.17;;;;;;;4.03;100.00;98954.81;5082953;27;20039;-63
2023/02/21 06:47:33;;;;;;;67.32;32.47;;;;;;;4.08;100.00;98960.50;5086750;28;20458;-67
2023/02/21 06:49:58;;;;;;;63.45;31.92;;;;;;;4.23;100.00;98951.00;5082380;28;20472;-65
2023/02/21 06:52:23;;;;;;;68.95;33.67;;;;;;;4.29;100.00;98955.78;5070559;28;20038;-66
2023/02/21 06:54:49;;;;;;;66.05;33.70;;;;;;;4.24;100.00;98952.69;5059523;28;20027;-66
2023/02/21 06:57:15;;;;;;;72.95;34.22;;;;;;;4.24;100.00;98957.81;5075985;28;20036;-66
2023/02/21 06:59:40;;;;;;;66.35;32.80;;;;;;;4.31;100.00;98956.50;5062312;28;20397;-67
2023/02/21 07:02:10;;;;;;;70.13;33.08;;;;;;;4.29;100.00;98953.22;5078353;28;20879;-65
2023/02/21 07:04:35;;;;;;;;;;;;;;;4.48;100.00;98968.31;5054873;28;20028;-66
2023/02/21 07:07:01;;;;;;;58.78;30.05;;;;;;;4.37;100.00;98968.19;5077772;28;20382;-66
2023/02/21 07:09:26;;;;;;;59.63;32.63;;;;;;;3.89;100.00;98904.22;5074381;28;20028;-68
2023/02/21 07:11:51;;;;;;;63.08;32.85;;;;;;;4.31;100.00;98986.56;5066727;28;20050;-68
2023/02/21 07:14:17;;;;;;;69.43;32.33;;;;;;;4.26;100.00;98974.00;5067925;28;20273;-65
2023/02/21 07:16:42;;;;;;;63.22;31.65;;;;;;;4.07;100.00;98968.31;5076886;28;20032;-65
2023/02/21 07:19:08;;;;;;;70.03;32.13;;;;;;;4.17;100.00;98972.00;5096027;28;20129;-68
2023/02/21 07:21:33;;;;;;;63.85;32.55;;;;;;;4.14;100.00;98978.13;5065966;28;20138;-65
2023/02/21 07:23:59;;;;;;;66.60;33.40;;;;;;;4.29;100.00;98986.69;5082027;28;20020;-65
2023/02/21 07:26:24;;;;;;;68.13;33.90;;;;;;;4.35;100.00;98985.47;5077472;28;20028;-65
2023/02/21 07:28:49;;;;;;;66.07;34.03;;;;;;;3.93;100.00;98931.41;5100196;28;20039;-65
2023/02/21 07:31:16;;;;;;;66.47;34.35;;;;;;;4.29;100.00;98978.09;5074048;28;20042;-64
2023/02/21 07:33:41;;;;;;;73.07;34.88;;;;;;;4.38;100.00;98980.09;5054125;28;20055;-68
2023/02/21 07:36:07;;;;;;;65.78;32.60;;;;;;;4.41;100.00;98985.88;5060860;28;20039;-67
2023/02/21 07:38:32;;;;;;;65.72;32.42;;;;;;;4.35;100.00;98977.75;5071898;28;20028;-65
2023/02/21 07:40:59;;;;;;;73.32;35.15;;;;;;;4.46;100.00;98987.38;5080470;28;20042;-64
2023/02/21 07:43:26;;;;;;;65.95;34.20;;;;;;;4.51;100.00;98982.72;5074086;28;20038;-66
2023/02/21 07:45:51;;;;;;;68.03;34.53;;;;;;;4.57;100.00;98972.06;5074061;28;20027;-65
2023/02/21 07:48:17;;;;;;;63.17;33.63;;;;;;;4.71;100.00;98984.88;5065660;28;20035;-65
2023/02/21 07:50:44;;;;;;;61.35;32.80;;;;;;;4.67;100.00;98969.72;5072861;28;20038;-66
2023/02/21 07:53:10;;;;;;;64.80;32.75;;;;;;;4.39;100.00;98936.25;5077876;28;20031;-66
2023/02/21 07:55:36;;;;;;;59.33;31.52;;;;;;;4.60;100.00;98972.69;5060833;28;20480;-66
2023/02/21 07:58:01;;;;;;;67.13;33.35;;;;;;;4.67;100.00;98980.00;5055613;28;20035;-64
2023/02/21 08:00:27;;;;;;;62.70;31.25;;;;;;;4.66;100.00;98968.06;5050797;28;20031;-67
2023/02/21 08:02:52;;;;;;;67.57;28.83;;;;;;;4.71;100.00;98966.84;5078953;28;20020;-65
2023/02/21 08:05:19;;;;;;;59.00;30.20;;;;;;;4.75;100.00;98970.88;5076800;28;21051;-65
2023/02/21 08:07:44;;;;;;;60.50;32.63;;;;;;;4.86;100.00;98983.06;5050992;28;20027;-65
2023/02/21 08:10:11;;;;;;;67.28;33.38;;;;;;;4.79;100.00;98968.94;5066853;28;20039;-66
2023/02/21 08:12:36;;;;;;;68.15;31.15;;;;;;;4.86;100.00;98977.91;5065474;28;20168;-65
2023/02/21 08:15:03;;;;;;;70.70;33.47;;;;;;;4.89;100.00;98982.03;5064609;28;20482;-64
2023/02/21 08:17:29;;;;;;;64.28;33.25;;;;;;;4.57;100.00;98928.28;5075724;28;20826;-65
2023/02/21 08:19:54;;;;;;;60.58;33.38;;;;;;;4.86;100.00;98977.09;5078669;28;20062;-65
2023/02/21 08:22:20;;;;;;;60.65;31.60;;;;;;;4.95;100.00;98974.75;5080283;28;20435;-66
2023/02/21 08:24:48;;;;;;;65.65;32.65;;;;;;;4.93;100.00;98958.56;5074410;27;20032;-64
2023/02/21 08:27:13;;;;;;;67.35;33.10;;;;;;;5.00;100.00;98958.97;5094962;27;20351;-65
2023/02/21 08:29:39;;;;;;;70.07;34.20;;;;;;;5.05;100.00;98968.97;5096935;27;20020;-65
2023/02/21 08:32:04;;;;;;;69.20;33.88;;;;;;;4.97;100.00;98960.00;5090491;28;20115;-67
2023/02/21 08:34:30;;;;;;;64.18;32.45;;;;;;;4.73;100.00;98912.66;5070771;28;20255;-66
2023/02/21 08:36:55;;;;;;;67.97;33.25;;;;;;;4.64;100.00;98908.94;5064476;28;20032;-65
2023/02/21 08:39:21;;;;;;;64.85;32.00;;;;;;;4.77;100.00;98929.56;5080749;28;20039;-65
2023/02/21 08:41:51;;;;;;;64.53;31.63;;;;;;;5.02;100.00;98964.88;5070835;28;20038;-66
2023/02/21 08:44:17;;;;;;;;;;;;;;;5.10;100.00;98962.59;5072574;28;20432;-65
2023/02/21 08:46:43;;;;;;;62.53;31.20;;;;;;;4.76;100.00;98902.97;5073927;27;20041;-65
2023/02/21 08:49:09;;;;;;;61.65;31.05;;;;;;;5.05;100.00;98943.22;5073914;27;20019;-65
2023/02/21 08:51:34;;;;;;;65.03;33.47;;;;;;;5.17;100.00;98965.59;5084582;28;20200;-66
2023/02/21 08:54:00;;;;;;;66.47;32.47;;;;;;;5.15;100.00;98950.22;5072016;28;20210;-65
2023/02/21 08:56:26;;;;;;;64.20;31.75;;;;;;;4.76;100.00;98882.38;5079785;27;20028;-65
2023/02/21 08:58:53;;;;;;;63.58;32.65;;;;;;;4.84;100.00;98893.91;5066735;27;20031;-65
2023/02/21 09:01:19;;;;;;;64.55;31.63;;;;;;;5.20;100.00;98953.34;5084182;27;20019;-65
2023/02/21 09:03:45;;;;;;;61.47;32.35;;;;;;;5.21;100.00;98946.41;5075603;28;20028;-65
2023/02/21 09:06:10;;;;;;;64.00;30.65;;;;;;;5.09;100.00;98940.34;5079018;28;20456;-64
2023/02/21 09:08:37;;;;;;;65.30;31.15;;;;;;;5.13;100.00;98944.34;5103351;27;20495;-64
2023/02/21 09:11:03;;;;;;;60.28;31.75;;;;;;;5.18;100.00;98941.44;5101362;27;20522;-68
2023/02/21 09:13:31;;;;;;;62.83;32.63;;;;;;;5.20;100.00;98948.19;5067535;27;20072;-65
2023/02/21 09:15:59;;;;;;;60.38;32.35;;;;;;;5.16;100.00;98928.66;5072020;28;20032;-68
2023/02/21 09:18:25;;;;;;;65.93;31.92;;;;;;;4.88;100.00;98883.31;5025442;28;20556;-64
2023/02/21 09:20:52;;;;;;;62.22;31.50;;;;;;;5.27;100.00;98942.59;5062488;28;20074;-64
2023/02/21 09:23:19;;;;;;;66.30;33.33;;;;;;;5.25;100.00;98927.22;5042280;28;20039;-66
2023/02/21 09:25:45;;;;;;;62.83;32.15;;;;;;;5.26;100.00;98928.88;5061007;28;20028;-65
2023/02/21 09:28:11;;;;;;;65.40;33.47;;;;;;;5.02;100.00;98882.38;5053252;28;20032;-64
2023/02/21 09:30:36;;;;;;;64.47;32.53;;;;;;;5.13;100.00;98885.06;5083334;28;20036;-64
2023/02/21 09:33:02;;;;;;;63.75;33.25;;;;;;;5.19;100.00;98889.78;5086558;28;20036;-65
2023/02/21 09:35:29;;;;;;;65.88;31.67;;;;;;;5.49;100.00;98940.22;5053090;28;20026;-64
2023/02/21 09:37:59;;;;;;;66.47;33.45;;;;;;;5.33;100.00;98903.50;5080795;28;20035;-64
2023/02/21 09:40:31;;;;;;;56.88;30.70;;;;;;;5.53;100.00;98946.84;5056242;28;20035;-64
2023/02/21 09:42:59;;;;;;;66.03;33.33;;;;;;;5.46;100.00;98922.38;5088974;28;20031;-63
2023/02/21 09:45:29;;;;;;;66.35;33.03;;;;;;;5.52;100.00;98939.19;5084846;28;20043;-64
2023/02/21 09:47:58;;;;;;;63.17;31.88;;;;;;;5.27;100.00;98878.97;5071266;28;20027;-64
2023/02/21 09:50:29;;;;;;;64.22;33.30;;;;;;;5.62;100.00;98929.88;5054330;28;20502;-64
2023/02/21 09:52:56;;;;;;;68.53;32.53;;;;;;;5.72;100.00;98930.91;5088137;28;20388;-63
2023/02/21 09:55:34;;;;;;;65.70;32.28;;;;;;;5.40;100.00;98878.94;5057073;28;20129;-64
2023/02/21 09:58:00;;;;;;;60.67;31.83;;;;;;;5.78;100.00;98930.47;5068345;28;20444;-66
2023/02/21 10:00:33;;;;;;;60.38;31.85;;;;;;;5.78;100.00;98922.72;5047066;28;20118;-65
2023/02/21 10:03:22;;;;;;;64.30;31.35;;;;;;;5.75;100.00;98919.56;5064187;28;20028;-66
2023/02/21 10:05:58;;;;;;;64.22;29.75;;;;;;;5.89;100.00;98921.97;5077768;28;20530;-66
2023/02/21 10:08:37;;;;;;;57.13;30.67;;;;;;;5.62;100.00;98843.94;5049685;28;20105;-67
2023/02/21 10:11:26;;;;;;;60.17;30.38;;;;;;;6.02;100.00;98914.22;5071803;28;20031;-67
2023/02/21 10:14:00;;;;;;;54.78;28.17;;;;;;;6.08;100.00;98916.41;5072322;28;20801;-66
2023/02/21 10:16:31;;;;;;;59.60;31.02;;;;;;;6.12;100.00;98892.00;5076455;28;20035;-67
2023/02/21 10:19:18;;;;;;;61.25;31.70;;;;;;;6.10;100.00;98896.47;5056245;28;20493;-65
2023/02/21 10:21:46;;;;;;;57.15;29.50;;;;;;;6.21;100.00;98890.53;5059780;28;20047;-65
2023/02/21 10:24:22;;;;;;;58.65;30.77;;;;;;;6.31;100.00;98901.81;5076246;28;20093;-67
2023/02/21 10:27:02;;;;;;;60.03;30.60;;;;;;;6.51;100.00;98889.22;5057508;28;20028;-67
2023/02/21 10:29:55;;;;;;;55.50;29.80;;;;;;;6.55;100.00;98895.81;5064262;28;20034;-66
2023/02/21 10:32:23;;;;;;;54.10;29.10;;;;;;;6.60;100.00;98898.06;5083413;28;20026;-64
2023/02/21 10:34:49;;;;;;;59.25;30.73;;;;;;;6.68;100.00;98891.41;5055483;28;20108;-64
2023/02/21 10:37:20;;;;;;;58.78;31.35;;;;;;;6.90;100.00;98893.22;5068975;28;20115;-65
2023/02/21 10:39:50;;;;;;;60.05;30.25;;;;;;;6.97;100.00;98897.94;5081856;28;20028;-66
2023/02/21 10:42:40;;;;;;;57.72;31.85;;;;;;;7.01;100.00;98879.50;5080947;28;20032;-66
2023/02/21 10:45:07;;;;;;;54.78;31.10;;;;;;;7.20;100.00;98876.34;5055113;28;20053;-65
2023/02/21 10:47:56;;;;;;;55.40;29.17;;;;;;;7.30;100.00;98887.66;5048443;28;20028;-65
2023/02/21 10:50:37;;;;;;;57.22;30.95;;;;;;;7.37;100.00;98880.22;5039200;28;20452;-67
2023/02/21 10:53:02;;;;;;;54.95;28.92;;;;;;;7.42;100.00;98877.28;5054715;28;20260;-65
2023/02/21 10:55:28;;;;;;;58.40;30.85;;;;;;;7.57;100.00;98870.91;5063739;28;20470;-67
2023/02/21 10:57:55;;;;;;;69.30;31.48;;;;;;;7.68;100.00;98875.25;5048258;28;20032;-65
2023/02/21 11:00:23;;;;;;;59.58;30.73;;;;;;;7.80;100.00;98870.91;5067757;28;20032;-65
2023/02/21 11:02:56;;;;;;;57.15;29.50;;;;;;;7.72;100.00;98860.31;5081825;28;20893;-65
2023/02/21 11:05:22;;;;;;;53.95;28.42;;;;;;;7.25;100.00;98824.28;5047810;28;20040;-66
2023/02/21 11:08:14;;;;;;;59.38;30.13;;;;;;;7.51;100.00;98861.06;5064732;28;20384;-67
2023/02/21 11:10:43;;;;;;;67.15;30.95;;;;;;;7.24;100.00;98801.94;5043227;28;20447;-66
2023/02/21 11:13:18;;;;;;;65.55;33.25;;;;;;;7.50;100.00;98851.63;5065432;28;20074;-65
2023/02/21 11:15:44;;;;;;;58.25;29.13;;;;;;;7.56;100.00;98845.19;5064276;28;20052;-66
2023/02/21 11:18:13;;;;;;;61.40;31.75;;;;;;;7.70;100.00;98842.31;5070257;28;20075;-65
2023/02/21 11:20:38;;;;;;;59.17;32.03;;;;;;;7.85;100.00;98827.34;5091171;28;20040;-65
2023/02/21 11:23:06;;;;;;;58.42;30.55;;;;;;;8.04;100.00;98829.28;5065025;28;20594;-65
2023/02/21 11:25:38;;;;;;;56.08;29.35;;;;;;;8.26;100.00;98828.38;5073379;28;20051;-65
2023/02/21 11:28:16;;;;;;;45.90;24.50;;;;;;;8.50;100.00;98828.16;5055658;28;20056;-65
2023/02/21 11:31:00;;;;;;;33.53;18.83;;;;;;;8.96;100.00;98818.31;5038230;28;20036;-65
2023/02/21 11:33:26;;;;;;;32.70;17.73;;;;;;;8.85;100.00;98760.44;5067675;28;20417;-64
2023/02/21 11:36:05;;;;;;;28.45;16.85;;;;;;;9.40;100.00;98816.31;5079180;28;20417;-65
2023/02/21 11:38:42;;;;;;;25.98;14.93;;;;;;;9.60;100.00;98796.41;5068157;28;20057;-64
2023/02/21 11:41:33;;;;;;;26.42;15.45;;;;;;;9.79;100.00;98798.25;5073812;28;20047;-65
2023/02/21 11:43:59;;;;;;;24.50;14.88;;;;;;;9.73;100.00;98789.22;5072766;28;20016;-66
2023/02/21 11:46:36;;;;;;;26.65;14.77;;;;;;;9.82;100.00;98793.59;5051889;28;20127;-65
2023/02/21 11:49:20;;;;;;;31.98;15.77;;;;;;;9.81;100.00;98780.75;5057124;28;20100;-65
2023/02/21 11:51:56;;;;;;;25.20;14.02;;;;;;;9.86;100.00;98765.59;5055086;28;20016;-65
2023/02/21 11:54:25;;;;;;;22.65;13.27;;;;;;;10.03;100.00;98763.25;5060198;28;20029;-65
2023/02/21 11:56:51;;;;;;;21.65;12.63;;;;;;;10.10;100.00;98761.75;5054881;28;20033;-65
2023/02/21 11:59:19;;;;;;;20.98;12.88;;;;;;;10.23;100.00;98764.88;5094033;28;20023;-66
2023/02/21 12:02:06;;;;;;;20.63;12.70;;;;;;;10.30;100.00;98758.16;5081477;28;20028;-66
2023/02/21 12:05:09;;;;;;;19.30;12.57;;;;;;;10.47;100.00;98755.84;5073402;28;20040;-66
2023/02/21 12:08:09;;;;;;;20.45;12.30;;;;;;;10.42;100.00;98743.25;5075628;28;20730;-66
2023/02/21 12:10:44;;;;;;;17.48;10.88;;;;;;;10.49;100.00;98740.91;5058239;28;20064;-67
2023/02/21 12:13:15;;;;;;;23.35;13.02;;;;;;;10.57;100.00;98739.25;5043026;28;20457;-66
2023/02/21 12:16:19;;;;;;;19.55;11.60;;;;;;;10.67;100.00;98736.63;5053575;28;20041;-67
2023/02/21 12:19:06;;;;;;;19.55;11.05;;;;;;;10.73;100.00;98730.88;5064830;28;20499;-65
2023/02/21 12:22:01;;;;;;;20.95;11.45;;;;;;;10.92;98.48;98718.72;5054563;28;20055;-64
2023/02/21 12:24:56;;;;;;;21.10;12.30;;;;;;;11.05;97.66;98721.81;5074630;28;20020;-64
2023/02/21 12:27:44;;;;;;;19.00;12.15;;;;;;;11.11;96.81;98713.41;5044950;28;20056;-64
2023/02/21 12:30:29;;;;;;;16.75;11.52;;;;;;;11.14;95.70;98704.50;5075217;28;20020;-64
2023/02/21 12:33:36;;;;;;;19.73;11.90;;;;;;;11.22;95.21;98712.38;5074894;28;20020;-64
2023/02/21 12:36:14;;;;;;;17.48;12.00;;;;;;;11.24;95.59;98707.03;4993155;28;20041;-65
2023/02/21 12:38:48;;;;;;;17.77;11.30;;;;;;;11.40;94.57;98715.03;4960823;28;20065;-60
2023/02/21 12:41:31;;;;;;;18.33;11.30;;;;;;;11.40;94.04;98704.59;5043624;28;20110;-61
2023/02/21 12:44:02;;;;;;;16.80;10.98;;;;;;;11.43;93.16;98706.94;5066743;28;20162;-61
2023/02/21 12:46:34;;;;;;;18.20;11.30;;;;;;;11.51;93.58;98695.78;5056695;28;20028;-61
2023/02/21 12:49:05;;;;;;;20.58;12.32;;;;;;;11.55;93.51;98689.28;5045824;28;20083;-60
2023/02/21 12:51:41;;;;;;;19.58;11.88;;;;;;;11.62;93.48;98692.94;5064697;28;20020;-60
2023/02/21 12:54:15;;;;;;;24.15;12.00;;;;;;;11.70;92.25;98690.41;5052219;28;20044;-61
2023/02/21 12:56:48;;;;;;;21.88;12.18;;;;;;;11.47;92.38;98644.97;5029438;28;20097;-60
2023/02/21 12:59:36;;;;;;;17.58;11.60;;;;;;;11.47;91.67;98644.97;5041544;28;20025;-60
2023/02/21 13:02:30;;;;;;;18.42;11.07;;;;;;;11.76;91.29;98677.75;5068335;28;20060;-60
2023/02/21 13:05:10;;;;;;;19.83;12.10;;;;;;;11.85;91.29;98666.44;5068405;28;20048;-61
2023/02/21 13:07:45;;;;;;;;;;;;;;;11.91;90.91;98663.25;5056057;28;20052;-61
2023/02/21 13:10:30;;;;;;;16.98;10.80;;;;;;;11.69;90.29;98605.41;5072987;28;19916;-60
2023/02/21 13:13:11;;;;;;;18.02;11.02;;;;;;;12.07;90.41;98657.34;5072854;28;20115;-61
2023/02/21 13:15:40;;;;;;;17.17;10.88;;;;;;;12.14;89.78;98660.13;5038706;28;20039;-61
2023/02/21 13:18:07;;;;;;;19.45;11.55;;;;;;;11.92;89.35;98613.59;5054854;28;20078;-61
2023/02/21 13:21:13;;;;;;;21.20;12.77;;;;;;;12.16;89.50;98656.41;5052763;28;20469;-61
2023/02/21 13:24:16;;;;;;;18.67;11.80;;;;;;;12.18;88.74;98641.44;5034812;28;20021;-60
2023/02/21 13:27:02;;;;;;;17.33;10.95;;;;;;;12.11;88.58;98632.59;5051389;28;20116;-62
2023/02/21 13:29:30;;;;;;;18.38;10.88;;;;;;;12.21;88.52;98643.75;5061494;28;20051;-60
2023/02/21 13:32:07;;;;;;;19.20;11.90;;;;;;;12.24;87.88;98630.38;5056665;28;20387;-60
2023/02/21 13:34:38;;;;;;;18.58;10.70;;;;;;;12.27;87.43;98618.84;5075690;28;20123;-60
2023/02/21 13:37:07;;;;;;;19.98;11.45;;;;;;;12.38;86.66;98622.97;5076235;28;20032;-61
2023/02/21 13:39:36;;;;;;;19.08;10.70;;;;;;;12.40;86.73;98619.22;5075778;28;20520;-60
2023/02/21 13:42:10;;;;;;;17.47;11.67;;;;;;;12.31;86.35;98626.19;5076142;28;20395;-61
2023/02/21 13:44:38;;;;;;;14.70;10.02;;;;;;;12.22;86.98;98624.50;5075303;28;20286;-61
2023/02/21 13:47:14;;;;;;;16.40;11.23;;;;;;;12.15;86.45;98610.47;5075390;28;20024;-61
2023/02/21 13:49:50;;;;;;;17.13;10.93;;;;;;;11.88;86.67;98567.94;5068488;28;20109;-62
2023/02/21 13:52:18;;;;;;;19.88;10.98;;;;;;;12.27;86.33;98621.44;5054695;28;20111;-61
2023/02/21 14:22:43;;;;;;;17.48;11.65;;;;;;;12.66;84.57;98595.69;5036524;28;20094;-64
2023/02/21 14:25:22;;;;;;;18.98;11.75;;;;;;;12.64;84.90;98596.81;5018244;28;20036;-63
2023/02/21 14:27:47;;;;;;;20.85;11.65;;;;;;;12.68;85.35;98600.75;5017645;28;20028;-65
2023/02/21 14:30:26;;;;;;;20.45;12.57;;;;;;;12.75;85.38;98600.94;5028232;28;20368;-64
2023/02/21 14:32:59;;;;;;;18.67;11.40;;;;;;;12.56;85.90;98586.34;5033808;28;20036;-65
2023/02/21 14:35:31;;;;;;;17.75;10.90;;;;;;;12.62;86.00;98601.38;5018134;28;20636;-65
2023/02/21 14:38:19;;;;;;;20.58;12.18;;;;;;;12.53;85.92;98595.31;5025055;28;20529;-63
2023/02/21 14:41:09;;;;;;;18.92;11.80;;;;;;;12.18;86.22;98559.81;5026064;28;20027;-65
2023/02/21 14:43:56;;;;;;;19.35;11.73;;;;;;;12.43;86.54;98597.22;5051810;28;20121;-66
2023/02/21 14:46:46;;;;;;;18.88;11.30;;;;;;;12.48;85.25;98590.59;5049248;28;20152;-66
2023/02/21 14:49:42;;;;;;;17.83;11.35;;;;;;;12.44;85.89;98597.06;5025511;28;20035;-65
2023/02/21 14:52:34;;;;;;;18.98;11.07;;;;;;;12.42;86.92;98596.41;5050696;28;20032;-66
2023/02/21 14:55:18;;;;;;;16.77;10.35;;;;;;;12.30;86.73;98597.66;5039850;28;20024;-63
2023/02/21 14:58:12;;;;;;;17.58;11.57;;;;;;;12.25;88.05;98592.13;5059721;28;20043;-63
2023/02/21 15:01:25;;;;;;;17.95;12.30;;;;;;;12.19;88.07;98587.50;5035819;28;20067;-65
2023/02/21 15:04:01;;;;;;;21.52;11.27;;;;;;;12.20;88.19;98584.75;5056502;28;20048;-63
2023/02/21 15:06:26;;;;;;;18.55;11.82;;;;;;;12.15;87.63;98580.97;5036846;28;20101;-63
2023/02/21 15:08:53;;;;;;;19.73;12.23;;;;;;;12.05;87.79;98587.13;5040868;28;20099;-63
2023/02/21 15:11:26;;;;;;;20.45;12.15;;;;;;;11.80;88.71;98562.69;5057543;28;20035;-62
2023/02/21 15:14:11;;;;;;;17.70;11.38;;;;;;;12.03;88.82;98601.25;5039052;28;20123;-64
2023/02/21 15:16:40;;;;;;;21.95;12.68;;;;;;;11.95;88.73;98596.81;5037951;28;20025;-63
2023/02/21 15:19:06;;;;;;;16.98;12.10;;;;;;;11.98;89.07;98600.94;5037269;28;20032;-65
2023/02/21 15:21:32;;;;;;;17.83;11.48;;;;;;;11.97;89.31;98596.69;5046014;28;20024;-62
2023/02/21 15:24:05;;;;;;;18.95;11.85;;;;;;;11.92;89.75;98597.97;5046058;28;20122;-62
2023/02/21 15:26:33;;;;;;;23.42;10.75;;;;;;;11.90;89.36;98589.47;5026064;28;20034;-63
2023/02/21 15:29:06;;;;;;;25.90;12.43;;;;;;;11.90;90.23;98589.47;5050394;28;20063;-62
2023/02/21 15:31:37;;;;;;;16.88;11.88;;;;;;;11.82;90.10;98578.16;5069355;28;20037;-63
2023/02/21 15:34:03;;;;;;;19.80;12.52;;;;;;;11.81;89.57;98571.28;5056060;28;20025;-62
2023/02/21 15:36:29;;;;;;;19.45;12.73;;;;;;;11.89;90.20;98587.81;5058356;28;20028;-65
2023/02/21 15:39:11;;;;;;;20.40;12.20;;;;;;;11.85;90.11;98591.69;5057278;28;20075;-61
2023/02/21 15:41:44;;;;;;;21.52;12.00;;;;;;;11.68;89.39;98553.47;5031061;28;20032;-64
2023/02/21 15:44:30;;;;;;;22.63;12.90;;;;;;;11.90;89.49;98586.03;5037416;28;20510;-62
2023/02/21 15:47:10;;;;;;;21.40;11.75;;;;;;;11.83;89.37;98577.19;5038519;28;20025;-62
2023/02/21 15:50:05;;;;;;;21.65;11.82;;;;;;;11.82;89.05;98583.38;5050326;28;20147;-63
2023/02/21 15:52:38;;;;;;;28.17;11.65;;;;;;;11.71;89.56;98567.00;5049913;28;20376;-62
2023/02/21 15:55:18;;;;;;;23.92;11.48;;;;;;;11.72;89.66;98579.06;5045605;28;20032;-64
2023/02/21 15:57:44;;;;;;;18.42;11.70;;;;;;;11.68;89.75;98576.91;5062912;28;20036;-63
2023/02/21 16:00:28;;;;;;;16.90;11.35;;;;;;;11.69;89.29;98584.59;5059713;28;20021;-62
2023/02/21 16:03:31;;;;;;;19.33;11.48;;;;;;;11.69;89.89;98588.97;5036119;28;20032;-60
2023/02/21 16:06:17;;;;;;;23.67;12.05;;;;;;;11.69;89.08;98589.78;5045507;28;20104;-61
2023/02/21 16:09:13;;;;;;;18.10;12.35;;;;;;;11.64;89.33;98586.00;5029372;28;20039;-62
2023/02/21 16:11:51;;;;;;;18.92;12.00;;;;;;;11.58;89.69;98586.63;5065813;28;20029;-61
2023/02/21 16:14:33;;;;;;;19.48;12.05;;;;;;;11.49;90.22;98576.13;5040153;28;20055;-62
2023/02/21 16:17:12;;;;;;;17.27;11.43;;;;;;;11.49;90.05;98583.94;5068430;28;20039;-61
2023/02/21 16:19:39;;;;;;;20.15;11.70;;;;;;;11.22;90.39;98548.44;5069228;28;20060;-61
2023/02/21 16:22:13;;;;;;;16.90;11.20;;;;;;;11.10;90.85;98534.84;5049894;28;20603;-60
2023/02/21 16:24:40;;;;;;;21.75;12.75;;;;;;;11.19;91.65;98564.34;5051571;28;20024;-60
2023/02/21 16:27:10;;;;;;;17.55;12.07;;;;;;;11.29;92.03;98585.91;5052678;28;20033;-60
2023/02/21 16:29:36;;;;;;;18.83;12.55;;;;;;;11.26;91.96;98588.81;5055712;28;20029;-60
2023/02/21 16:32:01;;;;;;;19.38;11.73;;;;;;;11.23;92.71;98594.31;5046867;28;20039;-60
2023/02/21 16:34:30;;;;;;;19.50;12.15;;;;;;;10.96;92.84;98559.59;5047259;28;20481;-61
2023/02/21 16:37:09;;;;;;;19.35;11.60;;;;;;;10.98;93.01;98556.03;5022457;28;20021;-61
2023/02/21 16:39:35;;;;;;;15.57;10.20;;;;;;;11.14;93.27;98593.41;5042718;28;20115;-60
2023/02/21 16:42:01;;;;;;;16.27;11.32;;;;;;;11.09;93.56;98597.44;5024674;28;20124;-61
2023/02/21 16:44:26;;;;;;;16.73;11.05;;;;;;;11.08;93.80;98598.38;5038738;28;20029;-61
2023/02/21 16:46:52;;;;;;;18.50;11.77;;;;;;;10.98;94.01;98595.88;5039386;28;20070;-62
2023/02/21 16:49:17;;;;;;;17.52;10.90;;;;;;;10.91;95.00;98610.44;5042594;28;20033;-61
2023/02/21 16:51:43;;;;;;;19.33;11.45;;;;;;;10.64;94.61;98560.09;5046989;28;20051;-61
2023/02/21 16:54:10;;;;;;;24.60;12.60;;;;;;;10.82;94.78;98608.69;5048305;28;20032;-61
2023/02/21 16:56:38;;;;;;;20.15;11.30;;;;;;;10.80;95.35;98601.03;5040869;28;20097;-61
2023/02/21 16:59:08;;;;;;;17.58;11.20;;;;;;;10.82;95.24;98611.31;5034961;28;20116;-63
2023/02/21 17:01:35;;;;;;;16.77;11.27;;;;;;;10.75;95.78;98614.50;5033112;28;20492;-64
2023/02/21 17:04:03;;;;;;;17.88;10.88;;;;;;;10.72;96.36;98617.38;5053667;28;20483;-61
2023/02/21 17:06:29;;;;;;;23.00;12.45;;;;;;;10.67;96.49;98606.59;5021443;28;20032;-60
2023/02/21 17:08:55;;;;;;;19.70;11.63;;;;;;;10.53;97.02;98600.13;5039489;28;20031;-62
2023/02/21 17:11:21;;;;;;;22.17;11.90;;;;;;;10.60;97.35;98609.94;5057266;28;20661;-62
2023/02/21 17:13:46;;;;;;;18.58;11.88;;;;;;;10.53;97.83;98617.47;5038654;28;20036;-62
2023/02/21 17:16:12;;;;;;;19.02;11.23;;;;;;;10.49;98.14;98619.53;5052630;28;20055;-62
2023/02/21 17:18:37;;;;;;;16.90;11.80;;;;;;;10.53;98.18;98620.06;5057699;28;20021;-61
2023/02/21 17:21:03;;;;;;;19.17;11.35;;;;;;;10.52;98.20;98619.25;5044488;28;20040;-61
2023/02/21 17:23:28;;;;;;;20.90;12.32;;;;;;;10.41;98.64;98606.47;5054688;28;20397;-61
2023/02/21 17:25:54;;;;;;;19.67;12.10;;;;;;;10.47;99.59;98629.28;5042339;28;20025;-62
2023/02/21 17:28:19;;;;;;;19.77;12.63;;;;;;;10.40;99.81;98625.59;5040618;28;20465;-62
2023/02/21 17:30:46;;;;;;;21.52;13.10;;;;;;;10.39;100.00;98632.59;5046137;28;20367;-61
2023/02/21 17:33:12;;;;;;;21.55;14.05;;;;;;;10.36;100.00;98637.25;5045975;28;20477;-60
2023/02/21 17:35:37;;;;;;;20.35;13.50;;;;;;;10.34;100.00;98644.38;5038894;28;20078;-61
2023/02/21 17:38:03;;;;;;;21.52;14.55;;;;;;;10.30;100.00;98641.22;5026981;28;20523;-61
2023/02/21 17:40:29;;;;;;;21.58;13.40;;;;;;;10.33;100.00;98653.13;5034441;28;20029;-61
2023/02/21 17:42:55;;;;;;;22.10;14.07;;;;;;;10.33;100.00;98656.56;5042002;28;20487;-63
2023/02/21 17:45:21;;;;;;;19.95;13.02;;;;;;;10.31;100.00;98655.03;5024112;28;20021;-62
2023/02/21 17:47:48;;;;;;;22.13;13.73;;;;;;;10.17;100.00;98649.31;5015304;28;20044;-61
2023/02/21 17:50:13;;;;;;;21.63;13.60;;;;;;;10.22;100.00;98653.28;5022020;28;20033;-60
2023/02/21 17:52:39;;;;;;;20.23;14.15;;;;;;;10.20;100.00;98658.59;5037568;28;20103;-61
2023/02/21 17:55:06;;;;;;;23.23;14.20;;;;;;;10.15;100.00;98661.63;5048571;28;20029;-61
2023/02/21 17:57:39;;;;;;;23.67;13.98;;;;;;;10.12;100.00;98659.31;5031291;28;20068;-61
2023/02/21 18:00:08;;;;;;;23.55;14.43;;;;;;;10.01;100.00;98655.09;5051924;28;20040;-61
2023/02/21 18:02:35;;;;;;;22.73;14.15;;;;;;;9.99;100.00;98654.41;5037465;28;20217;-62
2023/02/21 18:05:01;;;;;;;20.38;14.02;;;;;;;9.99;100.00;98659.63;5044954;28;20021;-63
2023/02/21 18:07:30;;;;;;;24.35;15.07;;;;;;;9.98;100.00;98660.59;5039567;28;21135;-62
2023/02/21 18:09:58;;;;;;;21.52;13.80;;;;;;;9.98;100.00;98670.13;5046304;28;20129;-62
2023/02/21 18:12:23;;;;;;;26.38;14.13;;;;;;;9.93;100.00;98673.16;5036239;28;20028;-62
2023/02/21 18:14:49;;;;;;;20.27;13.93;;;;;;;9.80;100.00;98657.03;5036374;28;20033;-63
2023/02/21 18:17:14;;;;;;;19.35;13.25;;;;;;;9.87;100.00;98667.69;5028102;28;20052;-64
2023/02/21 18:19:40;;;;;;;22.20;14.05;;;;;;;9.95;100.00;98680.81;5021998;28;20094;-64
2023/02/21 18:22:05;;;;;;;25.30;14.88;;;;;;;9.85;100.00;98667.84;5028300;28;20059;-63
2023/02/21 18:24:31;;;;;;;22.35;14.25;;;;;;;9.91;100.00;98677.69;5020512;28;20033;-64
2023/02/21 18:26:56;;;;;;;22.73;14.75;;;;;;;9.91;100.00;98671.66;5035216;28;20495;-63